Time;durP1;ratioP1;P1;durP2;ratioP2;P2;SDS_P1;SDS_P2;PMS_P1;PMS_P2;Temp;Humidity;BMP_temperature;BMP_pressure;BME280_temperature;BME280_humidity;BME280_pressure;Samples;Min_cycle;Max_cycle;Signal;HPM_P1;HPM_P2
2023/01/15 00:00:50;;;;;;;1.00;0.20;;;17.80;82.00;;;;;;5116941;27;45614;-69
2023/01/15 00:03:17;;;;;;;0.82;0.28;;;17.80;81.50;;;;;;5118996;27;45533;-69
2023/01/15 00:05:44;;;;;;;0.98;0.30;;;17.80;81.50;;;;;;5112236;27;45327;-69
2023/01/15 00:08:11;;;;;;;0.10;0.10;;;17.80;81.00;;;;;;5115743;27;45256;-69
2023/01/15 00:10:38;;;;;;;0.80;0.30;;;17.80;81.10;;;;;;5113582;27;45549;-69
2023/01/15 00:13:04;;;;;;;0.60;0.20;;;17.80;80.80;;;;;;5118036;27;46454;-69
2023/01/15 00:15:31;;;;;;;0.60;0.20;;;17.80;81.80;;;;;;5117882;27;45465;-69
2023/01/15 00:17:59;;;;;;;0.40;0.25;;;17.80;81.80;;;;;;5118343;27;45354;-69
2023/01/15 00:20:26;;;;;;;0.38;0.20;;;17.80;82.30;;;;;;5117161;27;45246;-69
2023/01/15 00:22:53;;;;;;;0.75;0.17;;;17.80;82.20;;;;;;5116741;27;46079;-68
2023/01/15 00:28:05;;;;;;;0.45;0.25;;;17.80;81.90;;;;;;5116059;27;45453;-69
2023/01/15 00:30:31;;;;;;;0.77;0.25;;;17.80;81.90;;;;;;5116038;27;45313;-70
2023/01/15 00:32:59;;;;;;;1.02;0.30;;;17.80;81.70;;;;;;5119055;27;45356;-69
2023/01/15 00:35:26;;;;;;;0.30;0.10;;;17.80;82.00;;;;;;5115280;27;45362;-69
2023/01/15 00:37:53;;;;;;;0.65;0.20;;;17.80;81.50;;;;;;5116945;27;45307;-68
2023/01/15 00:40:21;;;;;;;0.82;0.20;;;17.80;81.50;;;;;;5117991;27;45774;-69
2023/01/15 00:42:48;;;;;;;0.20;0.10;;;17.80;81.60;;;;;;5114029;27;46604;-69
2023/01/15 00:45:14;;;;;;;0.88;0.22;;;17.80;81.50;;;;;;5117979;27;45478;-69
2023/01/15 00:47:43;;;;;;;0.30;0.17;;;17.80;81.40;;;;;;5116695;27;45366;-69
2023/01/15 00:50:14;;;;;;;0.35;0.28;;;17.80;81.10;;;;;;5121536;27;45414;-69
2023/01/15 00:52:41;;;;;;;1.13;0.30;;;17.80;80.60;;;;;;5117923;27;46278;-69
2023/01/15 00:55:08;;;;;;;0.47;0.20;;;17.80;81.00;;;;;;5120842;27;45378;-69
2023/01/15 00:57:35;;;;;;;1.42;0.30;;;17.80;81.00;;;;;;5120572;27;45482;-68
2023/01/15 01:00:03;;;;;;;0.45;0.20;;;17.80;81.10;;;;;;5121553;27;45376;-69
2023/01/15 01:02:29;;;;;;;0.17;0.15;;;17.80;80.90;;;;;;5119917;27;46550;-69
2023/01/15 01:04:56;;;;;;;1.85;0.20;;;17.80;81.00;;;;;;5120961;27;45363;-69
2023/01/15 01:07:24;;;;;;;0.73;0.30;;;17.80;81.40;;;;;;5125413;27;45481;-68
2023/01/15 01:09:51;;;;;;;0.30;0.20;;;17.80;81.70;;;;;;5123438;27;45366;-69
2023/01/15 01:12:20;;;;;;;1.80;0.22;;;17.80;81.80;;;;;;5122322;27;45422;-68
2023/01/15 01:14:46;;;;;;;1.52;0.30;;;17.80;81.90;;;;;;5118159;27;45280;-69
2023/01/15 01:17:13;;;;;;;0.20;0.10;;;17.80;81.80;;;;;;5122319;27;45334;-69
2023/01/15 01:19:40;;;;;;;0.50;0.28;;;17.80;81.80;;;;;;5119909;27;45600;-69
2023/01/15 01:22:07;;;;;;;0.45;0.22;;;17.80;81.80;;;;;;5122737;27;46996;-68
2023/01/15 01:24:35;;;;;;;0.25;0.20;;;17.80;81.70;;;;;;5123416;27;45380;-69
2023/01/15 01:27:02;;;;;;;0.32;0.20;;;17.80;81.70;;;;;;5119571;27;45429;-69
2023/01/15 01:29:29;;;;;;;0.65;0.20;;;17.80;81.80;;;;;;5120085;27;45313;-69
2023/01/15 01:31:55;;;;;;;0.20;0.20;;;17.80;81.70;;;;;;5123054;27;45363;-69
2023/01/15 01:34:22;;;;;;;0.90;0.30;;;17.80;81.30;;;;;;5120764;27;45430;-69
2023/01/15 01:36:49;;;;;;;0.75;0.20;;;17.80;81.60;;;;;;5113186;27;45460;-69
2023/01/15 01:39:18;;;;;;;1.20;0.20;;;17.80;81.60;;;;;;5109366;27;45238;-68
2023/01/15 01:41:47;;;;;;;0.38;0.10;;;17.80;81.50;;;;;;5119617;27;46570;-69
2023/01/15 01:44:51;;;;;;;0.13;0.10;;;17.80;81.90;;;;;;5125548;27;45368;-69
2023/01/15 01:47:21;;;;;;;1.08;0.22;;;17.80;81.90;;;;;;5120145;27;45449;-69
2023/01/15 01:49:51;;;;;;;0.40;0.20;;;17.70;80.90;;;;;;5125455;27;45339;-69
2023/01/15 01:52:22;;;;;;;0.20;0.20;;;17.70;80.90;;;;;;5124670;27;45345;-68
2023/01/15 01:54:51;;;;;;;0.43;0.15;;;17.70;81.20;;;;;;5114168;27;45404;-69
2023/01/15 01:57:21;;;;;;;0.73;0.25;;;17.70;80.80;;;;;;5125830;27;45290;-69
2023/01/15 01:59:48;;;;;;;0.40;0.20;;;17.70;80.90;;;;;;5125963;27;45254;-69
2023/01/15 02:02:20;;;;;;;0.20;0.17;;;17.70;81.20;;;;;;5124461;27;47679;-67
2023/01/15 02:04:47;;;;;;;0.22;0.13;;;17.80;81.40;;;;;;5119863;27;45411;-69
2023/01/15 02:07:14;;;;;;;2.67;0.25;;;17.80;81.20;;;;;;5123047;27;45245;-69
2023/01/15 02:09:41;;;;;;;0.35;0.20;;;17.80;81.20;;;;;;5117666;27;45544;-68
2023/01/15 02:12:16;;;;;;;0.63;0.13;;;17.90;81.10;;;;;;5124039;27;45330;-68
2023/01/15 02:14:54;;;;;;;0.38;0.30;;;17.90;80.90;;;;;;5124946;27;45513;-69
2023/01/15 02:17:29;;;;;;;0.38;0.10;;;17.90;80.50;;;;;;5125285;27;45314;-69
2023/01/15 02:20:09;;;;;;;0.08;0.00;;;17.90;80.70;;;;;;5117463;27;45323;-69
2023/01/15 02:22:46;;;;;;;0.55;0.30;;;17.90;80.70;;;;;;5125140;27;45481;-69
2023/01/15 02:25:22;;;;;;;1.17;0.20;;;17.90;80.60;;;;;;5124070;27;45443;-69
2023/01/15 02:27:56;;;;;;;1.20;0.28;;;17.90;80.60;;;;;;5122119;27;45323;-69
2023/01/15 02:30:29;;;;;;;0.35;0.20;;;17.90;80.50;;;;;;5124611;27;45456;-69
2023/01/15 02:33:00;;;;;;;1.27;0.20;;;17.90;80.60;;;;;;5116363;27;45355;-69
2023/01/15 02:35:31;;;;;;;0.52;0.17;;;17.90;80.50;;;;;;5123916;27;45356;-69
2023/01/15 02:38:02;;;;;;;0.65;0.30;;;17.90;80.50;;;;;;5124088;27;45417;-69
2023/01/15 02:40:31;;;;;;;1.45;0.45;;;17.90;80.10;;;;;;5123779;27;45416;-69
2023/01/15 02:43:00;;;;;;;0.75;0.10;;;17.90;80.80;;;;;;5123591;27;46398;-68
2023/01/15 02:45:30;;;;;;;0.88;0.25;;;17.90;80.20;;;;;;5113210;27;45451;-69
2023/01/15 02:48:02;;;;;;;0.10;0.10;;;17.80;79.60;;;;;;5116113;27;45367;-69
2023/01/15 02:50:35;;;;;;;1.17;0.20;;;17.90;80.10;;;;;;5124261;27;45354;-69
2023/01/15 02:53:07;;;;;;;2.25;0.17;;;17.80;80.10;;;;;;5116274;27;46283;-69
2023/01/15 02:55:37;;;;;;;1.52;0.20;;;17.90;80.70;;;;;;5123039;27;45339;-69
2023/01/15 02:58:10;;;;;;;0.10;0.00;;;17.90;80.50;;;;;;5123703;27;45426;-69
2023/01/15 03:00:40;;;;;;;0.38;0.10;;;17.90;80.50;;;;;;5123580;27;45344;-69
2023/01/15 03:03:10;;;;;;;0.47;0.10;;;17.90;80.50;;;;;;5122785;27;46174;-69
2023/01/15 03:05:42;;;;;;;0.82;0.28;;;17.90;80.60;;;;;;5118457;27;45320;-70
2023/01/15 03:08:09;;;;;;;0.75;0.20;;;17.90;80.50;;;;;;5123935;27;45359;-68
2023/01/15 03:10:47;;;;;;;0.40;0.22;;;17.90;80.30;;;;;;5123920;27;45308;-69
2023/01/15 03:13:20;;;;;;;0.30;0.10;;;17.90;80.50;;;;;;5123576;27;45440;-69
2023/01/15 03:18:44;;;;;;;1.33;0.20;;;17.90;80.30;;;;;;5118962;27;45263;-68
2023/01/15 03:21:16;;;;;;;0.70;0.40;;;17.90;79.90;;;;;;5117589;27;45423;-69
2023/01/15 03:23:49;;;;;;;0.30;0.20;;;17.80;79.60;;;;;;5124133;27;45229;-69
2023/01/15 03:26:16;;;;;;;0.60;0.30;;;17.80;79.60;;;;;;5116694;27;45402;-68
2023/01/15 03:28:45;;;;;;;1.45;0.15;;;17.80;79.60;;;;;;5123379;27;45603;-69
2023/01/15 03:31:12;;;;;;;0.30;0.20;;;17.80;79.60;;;;;;5123559;27;45809;-69
2023/01/15 03:33:39;;;;;;;0.52;0.20;;;17.80;79.30;;;;;;5121562;27;45255;-69
2023/01/15 03:36:07;;;;;;;0.55;0.30;;;17.80;80.40;;;;;;5121913;27;45474;-70
2023/01/15 03:38:37;;;;;;;0.45;0.10;;;17.80;78.90;;;;;;5117443;27;45363;-69
2023/01/15 03:41:15;;;;;;;0.68;0.20;;;17.80;79.40;;;;;;5122551;27;45481;-69
2023/01/15 03:43:51;;;;;;;0.80;0.30;;;17.80;79.80;;;;;;5123303;27;46520;-69
2023/01/15 03:46:39;;;;;;;1.85;0.30;;;17.80;80.00;;;;;;5118247;27;45942;-68
2023/01/15 03:49:15;;;;;;;0.88;0.30;;;17.80;79.90;;;;;;5123193;27;45426;-67
2023/01/15 03:51:49;;;;;;;1.40;0.30;;;17.90;80.10;;;;;;5123184;27;45287;-69
2023/01/15 03:54:25;;;;;;;0.88;0.30;;;17.80;79.90;;;;;;5118711;27;46079;-69
2023/01/15 03:56:58;;;;;;;0.63;0.20;;;17.80;79.80;;;;;;5122473;27;45686;-69
2023/01/15 03:59:32;;;;;;;1.00;0.20;;;17.90;79.80;;;;;;5123698;27;45427;-68
2023/01/15 04:02:01;;;;;;;0.65;0.20;;;17.80;79.70;;;;;;5119575;27;45412;-69
2023/01/15 04:04:28;;;;;;;2.33;0.30;;;17.80;79.40;;;;;;5123007;27;46285;-70
2023/01/15 04:06:56;;;;;;;0.38;0.20;;;17.80;79.70;;;;;;5121849;27;45398;-69
2023/01/15 04:09:24;;;;;;;0.93;0.20;;;17.80;79.50;;;;;;5118569;27;45492;-69
2023/01/15 04:11:51;;;;;;;1.00;0.38;;;17.80;79.40;;;;;;5118756;27;45532;-69
2023/01/15 04:14:18;;;;;;;0.65;0.20;;;17.80;79.20;;;;;;5123089;27;46083;-70
2023/01/15 04:16:46;;;;;;;1.77;0.22;;;17.80;79.10;;;;;;5122368;27;45508;-68
2023/01/15 04:19:13;;;;;;;1.00;0.30;;;17.80;78.50;;;;;;5123279;27;45316;-69
2023/01/15 04:21:39;;;;;;;0.47;0.22;;;17.70;77.70;;;;;;5123180;27;45411;-69
2023/01/15 04:24:07;;;;;;;0.15;0.10;;;17.70;77.50;;;;;;5124058;27;46489;-69
2023/01/15 04:26:34;;;;;;;1.20;0.50;;;17.70;77.60;;;;;;5120839;27;45314;-69
2023/01/15 04:29:00;;;;;;;0.80;0.40;;;17.70;77.10;;;;;;5126741;27;45488;-69
2023/01/15 04:31:27;;;;;;;0.52;0.25;;;17.70;76.30;;;;;;5123519;27;45311;-68
2023/01/15 04:33:55;;;;;;;0.75;0.38;;;17.70;77.70;;;;;;5126893;27;47492;-69
2023/01/15 04:36:22;;;;;;;0.85;0.35;;;17.70;77.40;;;;;;5125805;27;45410;-69
2023/01/15 04:38:49;;;;;;;1.52;0.22;;;17.70;77.20;;;;;;5126886;27;45268;-68
2023/01/15 04:44:08;;;;;;;1.85;0.35;;;17.70;76.70;;;;;;5123027;27;45744;-69
2023/01/15 04:46:37;;;;;;;1.02;0.30;;;17.70;76.30;;;;;;5125651;27;45414;-69
2023/01/15 04:49:08;;;;;;;0.85;0.25;;;17.70;76.30;;;;;;5126610;27;45358;-69
2023/01/15 04:51:34;;;;;;;1.08;0.40;;;17.70;76.30;;;;;;5121848;27;45515;-68
2023/01/15 04:54:03;;;;;;;2.17;0.50;;;17.70;76.30;;;;;;5126525;27;46604;-69
2023/01/15 04:56:30;;;;;;;1.83;0.57;;;17.70;76.20;;;;;;5126066;27;45450;-69
2023/01/15 04:58:59;;;;;;;2.50;0.57;;;17.70;76.30;;;;;;5126717;27;45261;-68
2023/01/15 05:01:26;;;;;;;0.70;0.30;;;17.60;76.00;;;;;;5122611;27;45439;-69
2023/01/15 05:03:53;;;;;;;1.33;0.50;;;17.60;75.40;;;;;;5126553;27;46603;-69
2023/01/15 05:06:21;;;;;;;1.23;0.45;;;17.60;74.80;;;;;;5125805;27;45493;-69
2023/01/15 05:08:48;;;;;;;2.15;0.43;;;17.60;74.80;;;;;;5126615;27;45487;-69
2023/01/15 05:11:14;;;;;;;0.57;0.32;;;17.60;74.10;;;;;;5126542;27;45479;-69
2023/01/15 05:13:41;;;;;;;1.98;0.50;;;17.60;74.00;;;;;;5126281;27;47498;-68
2023/01/15 05:16:13;;;;;;;0.60;0.28;;;17.60;74.00;;;;;;5125143;27;45295;-69
2023/01/15 05:18:40;;;;;;;1.90;0.32;;;17.60;74.20;;;;;;5126216;27;45328;-69
2023/01/15 05:21:13;;;;;;;0.98;0.57;;;17.60;73.40;;;;;;5125818;27;45387;-69
2023/01/15 05:23:41;;;;;;;1.25;0.40;;;17.60;73.70;;;;;;5125899;27;45399;-68
2023/01/15 05:26:08;;;;;;;1.23;0.40;;;17.60;74.30;;;;;;5123583;27;45365;-69
2023/01/15 05:28:34;;;;;;;2.45;0.70;;;17.60;74.30;;;;;;5125695;27;45471;-68
2023/01/15 05:31:07;;;;;;;2.45;0.68;;;17.60;74.30;;;;;;5126172;27;45294;-68
2023/01/15 05:33:34;;;;;;;1.77;0.60;;;17.60;74.10;;;;;;5124355;27;46714;-68
2023/01/15 05:36:02;;;;;;;0.80;0.40;;;17.60;74.10;;;;;;5114442;27;45390;-67
2023/01/15 05:38:29;;;;;;;1.65;0.50;;;17.60;73.90;;;;;;5121383;27;45470;-68
2023/01/15 05:40:57;;;;;;;4.15;0.57;;;17.60;74.00;;;;;;5124576;27;45552;-68
2023/01/15 05:43:24;;;;;;;3.88;0.75;;;17.50;73.60;;;;;;5122583;27;45480;-68
2023/01/15 05:45:50;;;;;;;2.10;0.50;;;17.60;73.70;;;;;;5124609;27;45391;-68
2023/01/15 05:48:17;;;;;;;3.35;0.68;;;17.50;73.20;;;;;;5125648;27;45297;-69
2023/01/15 05:50:44;;;;;;;1.98;0.90;;;17.60;73.10;;;;;;5124143;27;45397;-69
2023/01/15 05:53:11;;;;;;;0.73;0.47;;;17.60;73.10;;;;;;5125107;27;46283;-68
2023/01/15 05:55:38;;;;;;;2.42;0.40;;;17.50;72.60;;;;;;5124722;27;45371;-69
2023/01/15 05:58:06;;;;;;;1.88;0.50;;;17.50;72.20;;;;;;5125317;27;45292;-68
2023/01/15 06:00:32;;;;;;;1.77;0.50;;;17.50;72.10;;;;;;5121736;27;45446;-69
2023/01/15 06:02:59;;;;;;;0.70;0.30;;;17.50;73.10;;;;;;5124687;27;46577;-68
2023/01/15 06:05:26;;;;;;;0.73;0.40;;;17.50;71.40;;;;;;5124560;27;45274;-68
2023/01/15 06:07:53;;;;;;;2.35;0.50;;;17.60;71.30;;;;;;5121987;27;45278;-68
2023/01/15 06:10:20;;;;;;;1.13;0.57;;;17.50;71.10;;;;;;5125308;27;45400;-69
2023/01/15 06:12:46;;;;;;;1.55;0.47;;;17.50;70.90;;;;;;5125086;27;46224;-68
2023/01/15 06:15:15;;;;;;;1.02;0.70;;;17.50;71.40;;;;;;5124694;27;45414;-68
2023/01/15 06:17:41;;;;;;;2.70;0.75;;;17.50;72.00;;;;;;5125330;27;45373;-68
2023/01/15 06:20:10;;;;;;;1.52;0.52;;;17.50;71.80;;;;;;5120479;27;45238;-68
2023/01/15 06:22:38;;;;;;;1.15;0.60;;;17.60;72.00;;;;;;5122747;27;45335;-68
2023/01/15 06:25:05;;;;;;;3.03;0.43;;;17.50;71.80;;;;;;5120743;27;45400;-68
2023/01/15 06:27:32;;;;;;;1.65;0.40;;;17.60;71.60;;;;;;5124252;27;45387;-68
2023/01/15 06:29:59;;;;;;;1.65;0.57;;;17.60;71.70;;;;;;5125318;27;45213;-68
2023/01/15 06:32:27;;;;;;;2.95;0.57;;;17.50;71.40;;;;;;5124040;27;46302;-69
2023/01/15 06:34:54;;;;;;;3.20;0.68;;;17.50;71.30;;;;;;5115758;27;45426;-69
2023/01/15 06:37:21;;;;;;;1.63;0.45;;;17.50;71.20;;;;;;5125288;27;45338;-68
2023/01/15 06:39:47;;;;;;;1.25;0.50;;;17.50;71.10;;;;;;5123423;27;45330;-68
2023/01/15 06:47:44;;;;;;;2.03;0.45;;;17.50;70.60;;;;;;5123446;27;45426;-68
2023/01/15 06:50:11;;;;;;;1.33;0.40;;;17.60;70.70;;;;;;5122427;27;45503;-68
2023/01/15 06:52:38;;;;;;;1.08;0.50;;;17.60;70.60;;;;;;5122314;27;48128;-68
2023/01/15 06:55:05;;;;;;;1.00;0.40;;;17.60;70.60;;;;;;5124024;27;45357;-68
2023/01/15 06:57:32;;;;;;;2.97;0.50;;;17.60;70.70;;;;;;5124948;27;45470;-68
2023/01/15 06:59:59;;;;;;;1.23;0.43;;;17.60;70.70;;;;;;5124079;27;45557;-68
2023/01/15 07:02:26;;;;;;;2.42;0.60;;;17.60;70.60;;;;;;5123866;27;45290;-68
2023/01/15 07:04:54;;;;;;;1.73;0.52;;;17.60;71.20;;;;;;5123848;27;45323;-68
2023/01/15 07:07:22;;;;;;;1.98;0.40;;;17.60;71.00;;;;;;5124528;27;45327;-69
2023/01/15 07:09:49;;;;;;;1.23;0.40;;;17.60;71.40;;;;;;5124497;27;45495;-68
2023/01/15 07:12:16;;;;;;;4.65;0.47;;;17.60;71.50;;;;;;5124339;27;45353;-68
2023/01/15 07:14:43;;;;;;;0.90;0.52;;;17.60;71.50;;;;;;5124193;27;45401;-69
2023/01/15 07:17:10;;;;;;;1.75;0.30;;;17.60;71.70;;;;;;5119984;27;45377;-68
2023/01/15 07:19:37;;;;;;;1.58;0.40;;;17.70;71.50;;;;;;5124266;27;45541;-69
2023/01/15 07:22:05;;;;;;;1.92;0.40;;;17.70;71.70;;;;;;5124179;27;45434;-68
2023/01/15 07:24:32;;;;;;;2.70;0.50;;;17.70;71.60;;;;;;5123750;27;45364;-68
2023/01/15 07:26:59;;;;;;;2.05;0.60;;;17.70;71.80;;;;;;5122065;27;45294;-68
2023/01/15 07:29:26;;;;;;;0.95;0.25;;;17.70;71.70;;;;;;5126213;27;45652;-67
2023/01/15 07:31:53;;;;;;;1.92;0.60;;;17.70;71.70;;;;;;5126369;27;45551;-68
2023/01/15 07:34:20;;;;;;;1.02;0.20;;;17.60;71.50;;;;;;5123349;27;45486;-68
2023/01/15 07:36:47;;;;;;;3.45;0.60;;;17.60;71.90;;;;;;5120034;27;45506;-68
2023/01/15 07:39:15;;;;;;;0.35;0.30;;;17.60;71.90;;;;;;5121924;27;45465;-69
2023/01/15 07:50:04;;;;;;;1.42;0.43;;;17.50;72.20;;;;;;5117429;27;45401;-68
2023/01/15 07:52:31;;;;;;;0.57;0.38;;;17.50;73.30;;;;;;5130152;27;46368;-68
2023/01/15 07:54:59;;;;;;;1.27;0.50;;;17.50;72.10;;;;;;5122431;27;45569;-69
2023/01/15 07:57:27;;;;;;;2.95;0.88;;;17.50;72.10;;;;;;5124496;27;45432;-68
2023/01/15 07:59:53;;;;;;;1.63;0.30;;;17.60;72.30;;;;;;5128383;27;45394;-68
2023/01/15 08:02:20;;;;;;;1.65;0.40;;;17.60;72.40;;;;;;5122546;27;46300;-69
2023/01/15 08:04:47;;;;;;;1.23;0.40;;;17.60;72.20;;;;;;5122348;27;45410;-68
2023/01/15 08:07:15;;;;;;;1.67;0.63;;;17.70;72.10;;;;;;5119380;27;45304;-68
2023/01/15 08:09:42;;;;;;;0.85;0.28;;;17.70;72.40;;;;;;5123591;27;45494;-68
2023/01/15 08:15:13;;;;;;;1.08;0.45;;;17.70;72.10;;;;;;5122457;27;45385;-68
2023/01/15 08:17:42;;;;;;;2.03;0.40;;;17.60;71.90;;;;;;5122764;27;45313;-68
2023/01/15 08:20:11;;;;;;;0.63;0.28;;;17.60;72.00;;;;;;5125516;27;45592;-68
2023/01/15 08:22:39;;;;;;;0.80;0.40;;;17.60;72.10;;;;;;5121231;27;46612;-68
2023/01/15 08:25:07;;;;;;;0.70;0.35;;;17.60;71.90;;;;;;5118691;27;45453;-67
2023/01/15 08:27:36;;;;;;;0.88;0.20;;;17.50;71.70;;;;;;5119318;27;45405;-68
2023/01/15 08:30:04;;;;;;;0.47;0.20;;;17.50;71.70;;;;;;5122531;27;45316;-68
2023/01/15 08:32:31;;;;;;;1.42;0.35;;;17.50;71.30;;;;;;5121803;27;46371;-68
2023/01/15 08:34:58;;;;;;;0.77;0.30;;;17.50;71.30;;;;;;5122133;27;45372;-68
2023/01/15 08:37:25;;;;;;;0.30;0.15;;;17.50;71.20;;;;;;5118523;27;45642;-69
2023/01/15 08:39:52;;;;;;;1.00;0.30;;;17.50;71.10;;;;;;5115119;27;45490;-68
2023/01/15 08:42:19;;;;;;;2.03;0.35;;;17.40;70.60;;;;;;5116773;27;46561;-68
2023/01/15 08:44:48;;;;;;;0.52;0.20;;;17.50;70.80;;;;;;5119260;27;45344;-68
2023/01/15 08:47:15;;;;;;;0.40;0.10;;;17.50;71.00;;;;;;5121801;27;45441;-68
2023/01/15 08:49:42;;;;;;;0.40;0.20;;;17.50;71.40;;;;;;5118471;27;45476;-68
2023/01/15 08:52:09;;;;;;;1.23;0.30;;;17.50;71.30;;;;;;5110959;27;45285;-69
2023/01/15 08:54:36;;;;;;;0.32;0.17;;;17.50;71.10;;;;;;5118400;27;45434;-68
2023/01/15 08:57:03;;;;;;;1.10;0.20;;;17.60;70.90;;;;;;5123335;27;45306;-69
2023/01/15 08:59:30;;;;;;;1.08;0.40;;;17.60;70.80;;;;;;5120748;27;45552;-68
2023/01/15 09:01:58;;;;;;;1.77;0.40;;;17.60;70.50;;;;;;5118372;27;47287;-69
2023/01/15 09:04:25;;;;;;;0.30;0.20;;;17.60;70.70;;;;;;5117446;27;45257;-68
2023/01/15 09:06:52;;;;;;;1.20;0.25;;;17.60;70.40;;;;;;5127991;27;45530;-68
2023/01/15 09:09:18;;;;;;;1.20;0.40;;;17.50;67.10;;;;;;5118082;27;45349;-67
2023/01/15 09:11:46;;;;;;;1.17;0.30;;;17.50;67.10;;;;;;5122191;27;46307;-65
2023/01/15 09:14:14;;;;;;;1.00;0.40;;;17.60;67.20;;;;;;5126742;27;45445;-67
2023/01/15 09:16:42;;;;;;;0.80;0.15;;;17.50;69.00;;;;;;5120326;27;45304;-68
2023/01/15 09:19:11;;;;;;;1.13;0.30;;;17.50;70.00;;;;;;5129082;27;45622;-68
2023/01/15 09:21:38;;;;;;;1.05;0.40;;;17.50;70.20;;;;;;5133841;27;47692;-68
2023/01/15 09:24:05;;;;;;;0.57;0.30;;;17.50;69.90;;;;;;5123717;27;45415;-67
2023/01/15 09:26:35;;;;;;;1.85;0.60;;;17.50;69.70;;;;;;5128895;27;45586;-68
2023/01/15 09:29:03;;;;;;;0.82;0.45;;;17.50;69.70;;;;;;5130290;27;45399;-68
2023/01/15 09:31:30;;;;;;;0.30;0.28;;;17.40;70.00;;;;;;5121667;27;46060;-68
2023/01/15 09:33:57;;;;;;;0.63;0.30;;;17.40;69.60;;;;;;5124076;27;45488;-68
2023/01/15 09:36:27;;;;;;;0.40;0.28;;;17.50;70.30;;;;;;5125748;27;45365;-68
2023/01/15 09:38:55;;;;;;;2.38;0.50;;;17.40;70.70;;;;;;5121186;27;45286;-67
2023/01/15 09:44:28;;;;;;;0.93;0.30;;;17.50;71.10;;;;;;5112461;27;45277;-68
2023/01/15 09:47:04;;;;;;;0.57;0.22;;;17.50;70.70;;;;;;5116044;27;45385;-68
2023/01/15 09:49:57;;;;;;;0.95;0.30;;;17.60;70.70;;;;;;5118565;27;45265;-68
2023/01/15 09:52:43;;;;;;;1.42;0.45;;;17.60;70.50;;;;;;5125841;27;45398;-68
2023/01/15 09:55:15;;;;;;;0.60;0.32;;;17.60;70.30;;;;;;5117883;27;45460;-68
2023/01/15 09:57:43;;;;;;;2.92;0.40;;;17.60;70.00;;;;;;5126029;27;45469;-68
2023/01/15 10:00:18;;;;;;;2.00;0.38;;;17.60;69.80;;;;;;5125939;27;45362;-68
2023/01/15 10:02:49;;;;;;;0.85;0.35;;;17.60;69.50;;;;;;5123884;27;45299;-68
2023/01/15 10:05:21;;;;;;;2.10;0.50;;;17.60;69.10;;;;;;5120911;27;45452;-68
2023/01/15 10:07:56;;;;;;;1.67;0.60;;;17.50;68.80;;;;;;5125582;27;45422;-68
2023/01/15 10:10:32;;;;;;;2.03;0.50;;;17.50;68.40;;;;;;5125658;27;45435;-68
2023/01/15 10:13:06;;;;;;;0.98;0.40;;;17.50;67.90;;;;;;5125278;27;45307;-68
2023/01/15 10:15:38;;;;;;;2.35;0.50;;;17.50;67.80;;;;;;5125032;27;45348;-68
2023/01/15 10:18:07;;;;;;;1.73;0.40;;;17.50;67.60;;;;;;5125530;27;45317;-68
2023/01/15 10:20:49;;;;;;;2.05;0.52;;;17.50;67.00;;;;;;5125650;27;45262;-68
2023/01/15 10:23:32;;;;;;;0.85;0.30;;;17.50;66.70;;;;;;5121685;27;45503;-68
2023/01/15 10:26:05;;;;;;;1.23;0.60;;;17.50;66.20;;;;;;5123892;27;45366;-68
2023/01/15 10:28:38;;;;;;;2.58;0.73;;;17.50;66.50;;;;;;5125119;27;45325;-67
2023/01/15 10:31:15;;;;;;;2.78;0.75;;;17.50;66.90;;;;;;5125459;27;45472;-68
2023/01/15 10:34:09;;;;;;;3.35;0.75;;;17.50;66.90;;;;;;5124782;27;46515;-67
2023/01/15 10:36:42;;;;;;;0.70;0.43;;;17.50;67.80;;;;;;5124458;27;45603;-68
2023/01/15 10:39:19;;;;;;;3.80;0.60;;;17.50;66.70;;;;;;5124464;27;45364;-68
2023/01/15 10:41:58;;;;;;;1.60;0.50;;;17.50;66.60;;;;;;5125065;27;45500;-67
2023/01/15 10:44:37;;;;;;;0.73;0.47;;;17.50;66.40;;;;;;5125071;27;47523;-68
2023/01/15 10:47:11;;;;;;;2.90;0.80;;;17.50;66.40;;;;;;5117177;27;45372;-68
2023/01/15 10:49:40;;;;;;;1.30;0.40;;;17.60;66.10;;;;;;5124851;27;45330;-68
2023/01/15 10:52:19;;;;;;;2.80;0.73;;;17.60;66.20;;;;;;5125118;27;45404;-68
2023/01/15 10:54:50;;;;;;;1.73;0.45;;;17.60;66.00;;;;;;5124161;27;45389;-69
2023/01/15 10:57:21;;;;;;;1.40;0.47;;;17.60;65.90;;;;;;5117237;27;45371;-68
2023/01/15 10:59:52;;;;;;;2.13;0.63;;;17.60;66.10;;;;;;5124852;27;45363;-68
2023/01/15 11:02:32;;;;;;;1.33;0.50;;;17.60;66.40;;;;;;5124584;27;45556;-68
2023/01/15 11:04:59;;;;;;;0.88;0.50;;;17.60;66.20;;;;;;5123845;27;47998;-68
2023/01/15 11:07:35;;;;;;;1.90;0.63;;;17.60;66.30;;;;;;5124351;27;45255;-68
2023/01/15 11:10:07;;;;;;;0.63;0.38;;;17.60;66.40;;;;;;5125152;27;45396;-68
2023/01/15 11:21:00;;;;;;;3.55;0.73;;;17.60;66.70;;;;;;5124895;27;45285;-68
2023/01/15 11:23:26;;;;;;;2.17;0.50;;;17.60;66.50;;;;;;5124467;27;45422;-68
2023/01/15 11:25:57;;;;;;;3.10;0.88;;;17.60;66.60;;;;;;5122383;27;45866;-68
2023/01/15 11:28:34;;;;;;;1.58;0.52;;;17.70;66.60;;;;;;5123683;27;45521;-68
2023/01/15 11:31:01;;;;;;;2.42;0.63;;;17.60;66.80;;;;;;5120176;27;45303;-68
2023/01/15 11:33:30;;;;;;;1.60;0.50;;;17.70;66.80;;;;;;5123597;27;45367;-68
2023/01/15 11:35:59;;;;;;;2.83;0.50;;;17.70;66.80;;;;;;5123328;27;46648;-68
2023/01/15 11:38:28;;;;;;;1.92;0.57;;;17.70;66.80;;;;;;5123490;27;45280;-67
2023/01/15 11:40:59;;;;;;;2.63;0.50;;;17.70;66.80;;;;;;5115858;27;45527;-67
2023/01/15 11:52:07;;;;;;;1.50;0.60;;;17.70;66.50;;;;;;5121203;27;45342;-68
2023/01/15 11:54:39;;;;;;;1.05;0.73;;;17.70;66.40;;;;;;5124393;27;45256;-68
2023/01/15 11:57:07;;;;;;;2.40;0.40;;;17.70;66.50;;;;;;5120269;27;45350;-68
2023/01/15 11:59:34;;;;;;;1.02;0.40;;;17.70;66.30;;;;;;5123721;27;46172;-68
2023/01/15 12:02:04;;;;;;;1.05;0.40;;;17.70;66.60;;;;;;5123229;27;45250;-68
2023/01/15 12:04:36;;;;;;;1.30;0.32;;;17.60;66.60;;;;;;5122693;27;45485;-68
2023/01/15 12:07:05;;;;;;;2.05;0.45;;;17.60;67.10;;;;;;5123008;27;46576;-67
2023/01/15 12:10:06;;;;;;;2.22;0.50;;;17.60;67.00;;;;;;5123727;27;45359;-68
2023/01/15 12:12:49;;;;;;;1.77;0.43;;;17.70;66.50;;;;;;5123434;27;45412;-68
2023/01/15 12:15:39;;;;;;;1.63;0.40;;;17.70;66.50;;;;;;5123319;27;45323;-68
2023/01/15 12:18:48;;;;;;;1.05;0.30;;;17.70;66.70;;;;;;5123511;27;46059;-68
2023/01/15 12:21:29;;;;;;;1.35;0.35;;;17.70;66.50;;;;;;5113939;27;45283;-67
2023/01/15 12:24:13;;;;;;;1.60;0.40;;;17.70;66.60;;;;;;5115809;27;45250;-67
2023/01/15 12:26:49;;;;;;;0.68;0.43;;;17.70;66.40;;;;;;5121710;27;45444;-67
2023/01/15 12:29:22;;;;;;;1.45;0.43;;;17.70;66.30;;;;;;5123526;27;45609;-68
2023/01/15 12:31:54;;;;;;;0.32;0.20;;;17.70;66.40;;;;;;5123054;27;45332;-67
2023/01/15 12:34:26;;;;;;;0.77;0.35;;;17.70;66.20;;;;;;5123328;27;45295;-67
2023/01/15 12:36:57;;;;;;;2.40;0.50;;;17.70;66.00;;;;;;5123017;27;45286;-67
2023/01/15 12:39:30;;;;;;;0.77;0.40;;;17.70;66.20;;;;;;5119296;27;47055;-67
2023/01/15 12:45:03;;;;;;;0.60;0.30;;;17.60;65.50;;;;;;5123003;27;45348;-68
2023/01/15 12:47:34;;;;;;;1.50;0.40;;;17.60;65.60;;;;;;5126491;27;45473;-68
2023/01/15 12:50:10;;;;;;;1.70;0.40;;;17.60;65.20;;;;;;5122479;27;47059;-68
2023/01/15 12:52:41;;;;;;;0.82;0.40;;;17.60;64.80;;;;;;5126812;27;45289;-68
2023/01/15 12:55:15;;;;;;;0.95;0.20;;;17.60;64.90;;;;;;5125519;27;45308;-67
2023/01/15 12:57:45;;;;;;;1.98;0.60;;;17.60;64.50;;;;;;5126763;27;45326;-68
2023/01/15 13:00:18;;;;;;;2.08;0.40;;;17.60;64.20;;;;;;5126629;27;45556;-68
2023/01/15 13:03:00;;;;;;;1.25;0.30;;;17.60;64.30;;;;;;5125878;27;45370;-67
2023/01/15 13:05:30;;;;;;;1.33;0.38;;;17.60;64.50;;;;;;5125793;27;45244;-68
2023/01/15 13:08:02;;;;;;;2.85;0.30;;;17.60;64.40;;;;;;5126640;27;45624;-67
2023/01/15 13:10:33;;;;;;;1.38;0.43;;;17.60;64.20;;;;;;5126396;27;45301;-69
2023/01/15 13:13:11;;;;;;;1.00;0.45;;;17.60;64.40;;;;;;5114904;27;45442;-67
2023/01/15 13:15:45;;;;;;;1.52;0.50;;;17.60;64.00;;;;;;5126030;27;45403;-68
2023/01/15 13:18:22;;;;;;;1.13;0.38;;;17.50;64.00;;;;;;5126626;27;45402;-67
2023/01/15 13:20:50;;;;;;;2.60;0.57;;;17.50;63.70;;;;;;5126218;27;46984;-67
2023/01/15 13:23:33;;;;;;;1.33;0.50;;;17.60;63.80;;;;;;5126397;27;45435;-67
2023/01/15 13:26:15;;;;;;;0.85;0.40;;;17.60;63.50;;;;;;5125040;27;45354;-68
2023/01/15 13:28:53;;;;;;;0.88;0.30;;;17.50;63.10;;;;;;5126366;27;45526;-67
2023/01/15 13:31:44;;;;;;;2.33;0.30;;;17.50;62.40;;;;;;5122483;27;47381;-68
2023/01/15 13:34:18;;;;;;;0.95;0.20;;;17.50;62.70;;;;;;5126220;27;45415;-67
2023/01/15 13:36:48;;;;;;;1.48;0.28;;;17.50;62.70;;;;;;5125380;27;45385;-67
2023/01/15 13:39:19;;;;;;;2.38;0.40;;;17.50;62.70;;;;;;5126431;27;45392;-68
2023/01/15 13:44:38;;;;;;;1.48;0.45;;;17.50;63.20;;;;;;5126002;27;45224;-67
2023/01/15 13:47:10;;;;;;;1.25;0.50;;;17.50;62.40;;;;;;5123801;27;45493;-67
2023/01/15 13:49:41;;;;;;;1.15;0.30;;;17.50;62.80;;;;;;5118292;27;45339;-67
2023/01/15 13:52:21;;;;;;;2.03;0.40;;;17.50;62.60;;;;;;5125865;27;46299;-68
2023/01/15 13:54:48;;;;;;;0.98;0.50;;;17.60;62.50;;;;;;5124876;27;45345;-67